createdAt,value
2022-09-05T00:00:19.515Z,4.67
2022-09-05T00:03:42.226Z,4.03
2022-09-05T00:06:35.082Z,4.20
2022-09-05T00:10:00.292Z,4.07
2022-09-05T00:12:51.147Z,4.87
2022-09-05T00:16:15.761Z,4.27
2022-09-05T00:23:12.098Z,4.40
2022-09-05T00:24:35.462Z,4.70
2022-09-05T00:26:50.245Z,4.30
2022-09-05T00:31:07.223Z,4.47
2022-09-05T00:33:23.587Z,4.43
2022-09-05T00:36:20.862Z,4.30
2022-09-05T00:39:18.294Z,4.40
2022-09-05T00:42:11.188Z,4.90
2022-09-05T00:45:03.070Z,4.60
2022-09-05T00:48:17.773Z,4.43
2022-09-05T00:51:34.787Z,4.30
2022-09-05T00:54:57.073Z,4.80
2022-09-05T00:58:10.986Z,4.03
2022-09-05T01:00:59.745Z,4.30
2022-09-05T01:04:18.976Z,4.57
2022-09-05T01:07:17.649Z,4.77
2022-09-05T01:10:32.882Z,4.40
2022-09-05T01:14:00.795Z,4.87
2022-09-05T01:17:29.609Z,5.03
2022-09-05T01:20:55.754Z,4.23
2022-09-05T01:24:12.444Z,4.73
2022-09-05T01:27:31.482Z,4.53
2022-09-05T01:31:04.261Z,4.13
2022-09-05T01:37:48.974Z,3.40
2022-09-05T01:45:04.735Z,3.87
2022-09-05T01:48:32.381Z,4.17
2022-09-05T01:51:49.077Z,4.20
2022-09-05T01:55:08.741Z,4.00
2022-09-05T01:58:03.819Z,4.10
2022-09-05T02:05:48.420Z,3.73
2022-09-05T02:12:00.691Z,3.70
2022-09-05T02:15:02.981Z,3.73
2022-09-05T02:17:55.383Z,3.50
2022-09-05T02:24:20.809Z,4.17
2022-09-05T02:28:05.609Z,3.93
2022-09-05T02:40:32.605Z,4.17
2022-09-05T02:45:10.844Z,4.00
2022-09-05T02:45:11.159Z,4.10
2022-09-05T02:48:14.702Z,3.93
2022-09-05T02:57:25.463Z,4.07
2022-09-05T02:57:34.202Z,3.90
2022-09-05T02:58:07.765Z,3.93
2022-09-05T03:01:34.073Z,4.13
2022-09-05T03:04:31.078Z,4.50
2022-09-05T03:08:09.302Z,4.03
2022-09-05T03:11:19.383Z,3.77
2022-09-05T03:14:43.394Z,4.20
2022-09-05T03:17:53.475Z,3.80
2022-09-05T03:21:09.746Z,4.37
2022-09-05T03:24:31.410Z,4.17
2022-09-05T03:27:36.546Z,4.20
2022-09-05T03:30:28.118Z,4.33
2022-09-05T03:33:37.109Z,4.60
2022-09-05T03:36:54.857Z,3.70
2022-09-05T03:40:02.031Z,4.37
2022-09-05T03:43:34.426Z,4.00
2022-09-05T03:46:44.946Z,4.57
2022-09-05T03:54:06.996Z,4.43
2022-09-05T03:57:16.511Z,4.80
2022-09-05T03:57:41.594Z,4.40
2022-09-05T04:00:33.707Z,4.87
2022-09-05T04:08:11.269Z,4.83
2022-09-05T04:08:15.463Z,4.47
2022-09-05T04:10:06.489Z,4.80
2022-09-05T04:13:04.280Z,4.50
2022-09-05T04:16:05.446Z,5.07
2022-09-05T04:19:20.070Z,4.70
2022-09-05T04:22:45.539Z,4.17
2022-09-05T04:25:44.898Z,4.10
2022-09-05T04:28:41.279Z,4.07
2022-09-05T04:31:54.897Z,4.57
2022-09-05T04:35:29.949Z,4.67
2022-09-05T04:38:43.370Z,4.87
2022-09-05T04:41:39.609Z,4.57
2022-09-05T04:44:38.452Z,3.90
2022-09-05T04:47:43.666Z,4.73
2022-09-05T04:50:40.488Z,4.47
2022-09-05T04:53:36.893Z,4.80
2022-09-05T04:56:28.422Z,4.60
2022-09-05T05:05:23.668Z,4.17
2022-09-05T05:06:04.606Z,4.13
2022-09-05T05:06:44.480Z,4.60
2022-09-05T05:09:49.398Z,4.13
2022-09-05T05:18:00.927Z,4.23
2022-09-05T05:18:08.630Z,4.10
2022-09-05T05:20:40.110Z,4.33
2022-09-05T05:23:09.604Z,4.07
2022-09-05T05:26:00.411Z,4.43
2022-09-05T05:29:10.716Z,4.67
2022-09-05T05:32:02.972Z,4.00
2022-09-05T05:34:58.174Z,4.43
2022-09-05T05:38:07.682Z,4.27
2022-09-05T05:41:16.595Z,4.07
2022-09-05T05:44:19.345Z,3.60
2022-09-05T05:47:28.381Z,4.37
2022-09-05T05:50:44.438Z,3.87
2022-09-05T05:54:08.821Z,3.87
2022-09-05T05:57:27.910Z,4.10
2022-09-05T06:00:27.912Z,4.10
2022-09-05T06:03:26.548Z,4.30
2022-09-05T06:06:20.564Z,4.10
2022-09-05T06:12:58.848Z,4.20
2022-09-05T06:15:02.501Z,3.80
2022-09-05T06:16:12.777Z,3.73
2022-09-05T06:19:34.216Z,3.73
2022-09-05T06:22:46.393Z,4.03
2022-09-05T06:25:53.474Z,4.07
2022-09-05T06:29:12.826Z,3.90
2022-09-05T06:32:18.606Z,4.20
2022-09-05T06:35:17.981Z,4.00
2022-09-05T06:38:04.954Z,3.73
2022-09-05T06:41:14.263Z,4.17
2022-09-05T06:44:26.255Z,3.97
2022-09-05T06:47:24.163Z,4.40
2022-09-05T06:50:27.443Z,4.17
2022-09-05T06:53:33.797Z,3.90
2022-09-05T06:56:37.731Z,4.00
2022-09-05T07:00:00.068Z,3.90
2022-09-05T07:03:09.053Z,3.77
2022-09-05T07:07:01.281Z,4.10
2022-09-05T07:09:59.603Z,4.40
2022-09-05T07:12:52.030Z,3.37
2022-09-05T07:15:51.959Z,4.10
2022-09-05T07:19:04.442Z,3.87
2022-09-05T07:22:18.434Z,4.20
2022-09-05T07:25:37.292Z,4.97
2022-09-05T07:28:30.159Z,4.80
2022-09-05T07:31:27.511Z,4.20
2022-09-05T07:34:29.782Z,3.80
2022-09-05T07:37:22.195Z,4.20
2022-09-05T07:40:26.296Z,4.17
2022-09-05T07:43:24.136Z,3.93
2022-09-05T07:46:23.615Z,4.10
2022-09-05T07:49:17.570Z,4.20
2022-09-05T07:56:47.005Z,3.83
2022-09-05T07:57:15.936Z,4.30
2022-09-05T07:58:51.827Z,3.80
2022-09-05T08:01:43.849Z,4.17
2022-09-05T08:04:34.908Z,3.93
2022-09-05T08:07:49.113Z,3.80
2022-09-05T08:11:23.314Z,3.83
2022-09-05T08:14:45.447Z,4.00
2022-09-05T08:17:30.137Z,4.07
2022-09-05T08:20:38.169Z,4.10
2022-09-05T08:23:56.159Z,3.97
2022-09-05T08:26:49.610Z,3.90
2022-09-05T08:29:43.629Z,3.70
2022-09-05T08:33:11.443Z,3.77
2022-09-05T08:36:08.280Z,3.43
2022-09-05T08:38:59.678Z,3.80
2022-09-05T08:42:19.950Z,3.63
2022-09-05T08:46:47.587Z,3.87
2022-09-05T08:49:14.969Z,3.60
2022-09-05T08:52:28.423Z,4.13
2022-09-05T08:55:52.568Z,3.63
2022-09-05T08:59:31.473Z,3.57
2022-09-05T09:02:52.157Z,3.50
2022-09-05T09:06:17.196Z,3.77
2022-09-05T09:09:07.246Z,3.70
2022-09-05T09:12:11.351Z,3.22
2022-09-05T09:15:14.215Z,3.75
2022-09-05T09:18:11.990Z,3.78
2022-09-05T09:21:22.228Z,3.45
2022-09-05T09:24:24.353Z,3.88
2022-09-05T09:27:44.556Z,3.85
2022-09-05T09:30:35.809Z,3.65
2022-09-05T09:33:41.071Z,4.20
2022-09-05T09:36:37.210Z,4.25
2022-09-05T09:39:58.308Z,3.70
2022-09-05T09:43:05.161Z,3.80
2022-09-05T09:46:18.995Z,3.90
2022-09-05T09:49:23.395Z,4.03
2022-09-05T09:52:20.664Z,3.92
2022-09-05T09:55:30.330Z,3.92
2022-09-05T09:58:47.514Z,3.88
2022-09-05T10:01:41.877Z,3.63
2022-09-05T10:10:38.495Z,3.90
2022-09-05T10:10:48.638Z,3.85
2022-09-05T10:12:38.376Z,4.07
2022-09-05T10:15:31.665Z,3.50
2022-09-05T10:18:41.142Z,4.35
2022-09-05T10:21:36.933Z,3.88
2022-09-05T10:25:18.551Z,3.30
2022-09-05T10:28:13.920Z,3.55
2022-09-05T10:33:49.792Z,3.13
2022-09-05T10:35:14.166Z,3.30
2022-09-05T10:37:43.524Z,3.13
2022-09-05T10:41:03.202Z,3.70
2022-09-05T10:43:53.185Z,3.63
2022-09-05T10:47:32.470Z,2.92
2022-09-05T10:50:19.671Z,3.10
2022-09-05T10:53:20.332Z,3.38
2022-09-05T10:56:28.381Z,3.17
2022-09-05T11:02:18.908Z,3.28
2022-09-05T11:03:22.607Z,3.15
2022-09-05T11:06:17.364Z,3.00
2022-09-05T11:09:36.335Z,3.10
2022-09-05T11:12:41.885Z,3.15
2022-09-05T11:16:03.900Z,3.35
2022-09-05T11:19:03.821Z,3.50
2022-09-05T11:22:22.507Z,3.40
2022-09-05T11:25:21.111Z,3.28
2022-09-05T11:29:00.126Z,3.38
2022-09-05T11:33:17.360Z,2.80
2022-09-05T11:39:47.120Z,3.03
2022-09-05T11:40:26.400Z,2.75
2022-09-05T11:41:54.702Z,2.90
2022-09-05T11:45:18.199Z,2.88
2022-09-05T11:48:24.008Z,3.10
2022-09-05T11:51:19.857Z,2.85
2022-09-05T11:54:45.657Z,3.13
2022-09-05T11:57:50.305Z,3.20
2022-09-05T12:01:43.441Z,3.00
2022-09-05T12:04:31.509Z,3.20
2022-09-05T12:07:49.693Z,2.35
2022-09-05T12:10:52.903Z,2.67
2022-09-05T12:13:48.721Z,2.60
2022-09-05T12:17:00.080Z,2.75
2022-09-05T12:20:17.186Z,2.67
2022-09-05T12:23:49.376Z,3.05
2022-09-05T12:27:41.088Z,2.53
2022-09-05T12:30:22.209Z,2.50
2022-09-05T12:36:04.010Z,2.35
2022-09-05T12:39:01.365Z,2.65
2022-09-05T12:41:35.078Z,2.55
2022-09-05T12:44:36.981Z,2.53
2022-09-05T12:46:48.049Z,2.78
2022-09-05T12:49:47.387Z,2.45
2022-09-05T12:52:44.385Z,2.50
2022-09-05T12:55:41.610Z,2.60
2022-09-05T13:03:08.223Z,2.53
2022-09-05T13:03:09.502Z,2.80
2022-09-05T13:05:02.720Z,2.67
2022-09-05T13:07:58.397Z,2.20
2022-09-05T13:14:49.122Z,1.75
2022-09-05T13:15:01.101Z,2.47
2022-09-05T13:17:49.551Z,2.28
2022-09-05T13:20:45.694Z,2.35
2022-09-05T13:23:41.661Z,2.42
2022-09-05T13:26:37.691Z,2.30
2022-09-05T13:29:44.218Z,2.30
2022-09-05T13:38:01.629Z,2.28
2022-09-05T13:38:10.928Z,2.42
2022-09-05T13:39:20.052Z,2.35
2022-09-05T13:42:14.465Z,2.28
2022-09-05T13:45:02.234Z,2.60
2022-09-05T13:48:10.482Z,2.88
2022-09-05T13:51:34.905Z,3.10
2022-09-05T13:54:24.916Z,3.20
2022-09-05T13:57:32.287Z,3.00
2022-09-05T14:01:04.297Z,3.17
2022-09-05T14:07:45.982Z,3.08
2022-09-05T14:10:33.805Z,3.20
2022-09-05T14:13:51.169Z,3.53
2022-09-05T14:16:55.059Z,3.40
2022-09-05T14:20:04.204Z,3.33
2022-09-05T14:22:51.409Z,3.30
2022-09-05T14:25:45.904Z,3.72
2022-09-05T14:28:38.682Z,3.70
2022-09-05T14:37:36.882Z,3.05
2022-09-05T14:37:52.622Z,3.20
2022-09-05T14:38:15.878Z,3.33
2022-09-05T14:41:28.389Z,3.45
2022-09-05T14:44:31.165Z,3.20
2022-09-05T14:47:36.293Z,3.58
2022-09-05T14:51:07.053Z,3.42
2022-09-05T14:54:00.284Z,3.85
2022-09-05T14:59:02.638Z,3.20
2022-09-05T15:02:51.313Z,3.55
2022-09-05T15:03:12.974Z,3.78
2022-09-05T15:06:01.048Z,3.67
2022-09-05T15:11:29.550Z,3.88
2022-09-05T15:12:31.271Z,3.90
2022-09-05T15:15:31.022Z,4.22
2022-09-05T15:18:18.046Z,3.72
2022-09-05T15:21:41.425Z,3.83
2022-09-05T15:24:31.018Z,3.85
2022-09-05T15:27:19.171Z,3.92
2022-09-05T15:30:07.821Z,4.18
2022-09-05T15:33:25.628Z,3.85
2022-09-05T15:36:14.686Z,3.83
2022-09-05T15:39:23.974Z,3.75
2022-09-05T15:42:19.812Z,3.53
2022-09-05T15:45:11.487Z,3.50
2022-09-05T15:48:21.708Z,4.03
2022-09-05T15:51:23.810Z,3.80
2022-09-05T15:54:30.693Z,3.58
2022-09-05T15:57:36.130Z,3.45
2022-09-05T16:00:51.392Z,3.72
2022-09-05T16:07:39.234Z,3.38
2022-09-05T16:10:34.789Z,3.58
2022-09-05T16:10:36.897Z,3.72
2022-09-05T16:13:17.686Z,3.80
2022-09-05T16:21:06.642Z,3.50
2022-09-05T16:23:26.565Z,3.65
2022-09-05T16:23:28.975Z,3.80
2022-09-05T16:25:55.270Z,3.80
2022-09-05T16:29:07.123Z,4.03
2022-09-05T16:32:07.305Z,3.83
2022-09-05T16:34:57.643Z,3.10
2022-09-05T16:37:50.758Z,3.30
2022-09-05T16:40:53.234Z,3.78
2022-09-05T16:43:44.987Z,3.67
2022-09-05T16:46:39.353Z,3.55
2022-09-05T16:49:41.522Z,3.85
2022-09-05T16:53:05.431Z,3.67
2022-09-05T16:56:18.292Z,3.75
2022-09-05T17:15:14.198Z,3.78
2022-09-05T17:27:29.770Z,3.80
2022-09-05T17:29:31.939Z,3.28
2022-09-05T17:46:05.856Z,3.70
2022-09-05T17:49:29.180Z,3.70
2022-09-05T18:07:44.318Z,4.07
2022-09-05T18:26:43.185Z,3.90
2022-09-05T18:33:53.490Z,3.60
2022-09-05T18:57:15.244Z,3.83
2022-09-05T19:08:04.198Z,3.70
2022-09-05T19:10:58.797Z,3.57
2022-09-05T19:14:28.888Z,3.80
2022-09-05T19:37:05.766Z,3.73
2022-09-05T19:37:13.758Z,4.10
2022-09-05T19:37:14.481Z,4.00
2022-09-05T19:42:14.336Z,3.70
2022-09-05T19:47:29.845Z,3.73
2022-09-05T19:47:49.713Z,3.77
2022-09-05T19:48:35.151Z,4.00
2022-09-05T19:51:26.998Z,4.07
2022-09-05T19:54:37.279Z,4.00
2022-09-05T19:57:39.483Z,3.73
2022-09-05T20:00:28.805Z,4.00
2022-09-05T20:03:43.752Z,4.10
2022-09-05T20:06:39.730Z,3.97
2022-09-05T20:09:42.058Z,4.10
2022-09-05T20:12:39.258Z,4.63
2022-09-05T20:15:55.242Z,4.13
2022-09-05T20:18:45.318Z,4.40
2022-09-05T20:21:39.083Z,4.37
2022-09-05T20:24:40.107Z,4.63
2022-09-05T20:27:30.418Z,4.43
2022-09-05T20:30:25.121Z,4.43
2022-09-05T20:33:38.159Z,4.47
2022-09-05T20:43:15.897Z,4.43
2022-09-05T20:43:17.888Z,4.53
2022-09-05T20:43:21.189Z,4.70
2022-09-05T20:47:30.109Z,4.40
2022-09-05T20:54:16.968Z,5.07
2022-09-05T20:54:18.861Z,4.40
2022-09-05T20:56:05.208Z,5.03
2022-09-05T20:58:55.837Z,4.50
2022-09-05T21:01:54.766Z,4.70
2022-09-05T21:04:55.322Z,5.13
2022-09-05T21:08:07.112Z,5.10
2022-09-05T21:10:59.066Z,4.60
2022-09-05T21:13:59.491Z,4.93
2022-09-05T21:17:15.555Z,4.60
2022-09-05T21:23:29.947Z,5.13
2022-09-05T21:26:25.529Z,5.03
2022-09-05T21:29:32.754Z,5.17
2022-09-05T21:32:22.551Z,5.33
2022-09-05T21:35:33.793Z,4.80
2022-09-05T21:38:32.644Z,4.63
2022-09-05T21:41:21.611Z,5.47
2022-09-05T21:47:45.066Z,4.93
2022-09-05T21:47:48.044Z,5.60
2022-09-05T21:50:31.469Z,5.07
2022-09-05T21:55:37.219Z,4.63
2022-09-05T21:59:18.011Z,5.00
2022-09-05T21:59:47.312Z,5.10
2022-09-05T22:02:35.080Z,5.10
2022-09-05T22:05:26.510Z,5.10
2022-09-05T22:08:15.401Z,5.17
2022-09-05T22:11:03.026Z,5.50
2022-09-05T22:13:59.157Z,5.47
2022-09-05T22:16:50.705Z,4.93
2022-09-05T22:19:38.086Z,4.80
2022-09-05T22:22:26.597Z,5.03
2022-09-05T22:25:21.025Z,5.57
2022-09-05T22:28:26.550Z,4.90
2022-09-05T22:31:22.258Z,4.93
2022-09-05T22:34:09.755Z,5.30
2022-09-05T22:36:57.151Z,5.83
2022-09-05T22:39:44.790Z,5.23
2022-09-05T22:42:31.894Z,5.60
2022-09-05T22:45:19.665Z,5.30
2022-09-05T22:48:12.448Z,5.23
2022-09-05T22:50:59.695Z,5.40
2022-09-05T22:53:46.755Z,5.10
2022-09-05T22:56:37.299Z,4.87
2022-09-05T22:59:24.302Z,6.03
2022-09-05T23:02:11.259Z,5.83
2022-09-05T23:04:59.636Z,5.60
2022-09-05T23:07:46.619Z,5.20
2022-09-05T23:10:34.698Z,5.83
2022-09-05T23:13:21.713Z,5.57
2022-09-05T23:16:09.931Z,5.50
2022-09-05T23:18:57.059Z,6.53
2022-09-05T23:21:44.146Z,5.47
2022-09-05T23:24:31.154Z,5.90
2022-09-05T23:27:18.270Z,5.03
2022-09-05T23:30:07.017Z,5.40
2022-09-05T23:32:54.058Z,5.53
2022-09-05T23:35:41.028Z,5.70
2022-09-05T23:38:28.510Z,6.07
2022-09-05T23:41:16.158Z,5.90
2022-09-05T23:44:03.239Z,5.90
2022-09-05T23:46:50.277Z,6.07
2022-09-05T23:49:37.264Z,5.93
2022-09-05T23:52:24.237Z,6.30
2022-09-05T23:55:14.334Z,6.30
2022-09-05T23:58:01.393Z,6.20
